createdAt,value
2018-12-09T00:02:10.999Z,2.53
2018-12-09T00:04:38.466Z,1.60
2018-12-09T00:07:06.015Z,2.87
2018-12-09T00:09:33.486Z,4.27
2018-12-09T00:12:00.998Z,3.50
2018-12-09T00:14:28.441Z,3.10
2018-12-09T00:16:55.910Z,3.10
2018-12-09T00:19:23.377Z,2.13
2018-12-09T00:21:50.825Z,1.80
2018-12-09T00:24:18.358Z,2.20
2018-12-09T00:26:45.807Z,2.47
2018-12-09T00:29:13.254Z,3.60
2018-12-09T00:31:40.722Z,4.17
2018-12-09T00:34:08.331Z,4.17
2018-12-09T00:36:35.793Z,2.80
2018-12-09T00:39:04.959Z,3.43
2018-12-09T00:41:32.458Z,4.63
2018-12-09T00:43:59.929Z,4.70
2018-12-09T00:46:27.427Z,4.10
2018-12-09T00:48:54.919Z,4.83
2018-12-09T00:51:22.375Z,4.03
2018-12-09T00:53:49.819Z,3.93
2018-12-09T00:56:17.295Z,4.53
2018-12-09T00:58:44.766Z,4.37
2018-12-09T01:01:12.279Z,2.20
2018-12-09T01:03:39.859Z,3.23
2018-12-09T01:06:07.305Z,3.60
2018-12-09T01:08:34.763Z,3.50
2018-12-09T01:11:02.241Z,3.20
2018-12-09T01:13:29.686Z,4.10
2018-12-09T01:15:57.260Z,3.87
2018-12-09T01:18:24.774Z,2.93
2018-12-09T01:20:52.252Z,4.53
2018-12-09T01:23:19.771Z,6.50
2018-12-09T01:25:47.213Z,4.80
2018-12-09T01:28:14.772Z,4.63
2018-12-09T01:30:42.261Z,2.20
2018-12-09T01:33:10.118Z,2.37
2018-12-09T01:35:37.586Z,3.27
2018-12-09T01:38:05.056Z,3.73
2018-12-09T01:40:34.557Z,3.10
2018-12-09T01:43:02.037Z,3.00
2018-12-09T01:45:29.486Z,2.70
2018-12-09T01:47:56.938Z,3.57
2018-12-09T01:50:24.410Z,3.17
2018-12-09T01:52:53.862Z,2.43
2018-12-09T01:55:21.329Z,3.47
2018-12-09T01:57:48.773Z,4.07
2018-12-09T02:00:16.292Z,5.20
2018-12-09T02:02:43.822Z,3.70
2018-12-09T02:05:11.379Z,3.40
2018-12-09T02:07:39.239Z,3.40
2018-12-09T02:10:06.803Z,2.87
2018-12-09T02:12:34.360Z,4.07
2018-12-09T02:15:01.918Z,2.43
2018-12-09T02:17:29.451Z,4.23
2018-12-09T02:19:57.015Z,2.07
2018-12-09T02:22:24.490Z,3.17
2018-12-09T02:24:51.955Z,3.57
2018-12-09T02:27:19.492Z,2.20
2018-12-09T02:29:47.068Z,2.03
2018-12-09T02:32:14.533Z,3.90
2018-12-09T02:34:45.893Z,3.00
2018-12-09T02:37:13.334Z,2.20
2018-12-09T02:39:40.794Z,3.47
2018-12-09T02:42:08.758Z,2.90
2018-12-09T02:44:36.274Z,3.63
2018-12-09T02:47:03.791Z,4.07
2018-12-09T02:49:31.350Z,3.57
2018-12-09T02:51:58.837Z,2.20
2018-12-09T02:54:26.300Z,3.37
2018-12-09T02:56:53.757Z,3.53
2018-12-09T02:59:21.237Z,2.97
2018-12-09T03:01:48.682Z,2.10
2018-12-09T03:04:16.275Z,1.30
2018-12-09T03:06:43.722Z,2.27
2018-12-09T03:09:11.182Z,3.20
2018-12-09T03:11:38.814Z,2.43
2018-12-09T03:14:06.312Z,2.13
2018-12-09T03:16:33.906Z,2.40
2018-12-09T03:19:01.372Z,3.43
2018-12-09T03:21:28.818Z,3.20
2018-12-09T03:23:56.302Z,2.10
2018-12-09T03:26:23.771Z,2.10
2018-12-09T03:28:51.338Z,1.97
2018-12-09T03:31:18.779Z,2.50
2018-12-09T03:33:46.465Z,3.30
2018-12-09T03:36:14.012Z,2.00
2018-12-09T03:38:41.555Z,1.60
2018-12-09T03:41:09.222Z,2.50
2018-12-09T03:43:36.671Z,2.70
2018-12-09T03:46:04.290Z,2.87
2018-12-09T03:48:31.740Z,1.23
2018-12-09T03:50:59.298Z,2.13
2018-12-09T03:53:26.819Z,1.60
2018-12-09T03:55:54.379Z,2.47
2018-12-09T03:58:21.862Z,2.20
2018-12-09T04:00:49.334Z,2.20
2018-12-09T04:03:16.887Z,2.43
2018-12-09T04:05:44.411Z,1.37
2018-12-09T04:08:11.866Z,2.80
2018-12-09T04:10:39.373Z,2.40
2018-12-09T04:13:06.854Z,1.60
2018-12-09T04:15:36.269Z,2.27
2018-12-09T04:18:03.922Z,2.30
2018-12-09T04:20:31.422Z,1.93
2018-12-09T04:22:58.967Z,2.97
2018-12-09T04:25:26.439Z,3.87
2018-12-09T04:27:53.895Z,2.13
2018-12-09T04:30:21.369Z,2.10
2018-12-09T04:32:48.947Z,3.50
2018-12-09T04:35:16.418Z,2.80
2018-12-09T04:37:44.015Z,2.00
2018-12-09T04:40:11.530Z,2.20
2018-12-09T04:42:38.970Z,1.90
2018-12-09T04:45:06.482Z,1.97
2018-12-09T04:47:33.941Z,2.10
2018-12-09T04:50:01.391Z,1.57
2018-12-09T04:52:28.866Z,2.63
2018-12-09T04:54:56.337Z,1.67
2018-12-09T04:57:23.810Z,1.73
2018-12-09T04:59:51.319Z,2.20
2018-12-09T05:02:18.861Z,2.10
2018-12-09T05:04:46.333Z,2.00
2018-12-09T05:07:13.962Z,2.03
2018-12-09T05:09:41.545Z,2.90
2018-12-09T05:12:08.990Z,1.83
2018-12-09T05:14:36.555Z,2.50
2018-12-09T05:17:04.033Z,2.20
2018-12-09T05:19:31.522Z,2.30
2018-12-09T05:21:59.085Z,2.53
2018-12-09T05:24:26.529Z,2.63
2018-12-09T05:26:54.145Z,2.17
2018-12-09T05:29:21.614Z,2.83
2018-12-09T05:31:49.134Z,1.90
2018-12-09T05:34:16.591Z,2.47
2018-12-09T05:36:44.043Z,3.00
2018-12-09T05:39:12.469Z,3.63
2018-12-09T05:41:39.922Z,1.20
2018-12-09T05:44:07.446Z,2.87
2018-12-09T05:46:35.026Z,3.10
2018-12-09T05:49:02.470Z,2.43
2018-12-09T05:51:29.950Z,3.23
2018-12-09T05:53:57.506Z,3.00
2018-12-09T05:56:24.958Z,1.83
2018-12-09T05:58:52.921Z,1.97
2018-12-09T06:01:20.365Z,3.00
2018-12-09T06:03:47.833Z,3.03
2018-12-09T06:06:15.297Z,3.90
2018-12-09T06:08:42.773Z,1.73
2018-12-09T06:11:10.622Z,2.63
2018-12-09T06:13:38.095Z,2.37
2018-12-09T06:16:05.566Z,2.23
2018-12-09T06:18:33.017Z,3.60
2018-12-09T06:21:00.494Z,2.47
2018-12-09T06:23:27.935Z,2.83
2018-12-09T06:25:55.405Z,3.90
2018-12-09T06:28:22.858Z,2.83
2018-12-09T06:30:50.424Z,3.53
2018-12-09T06:33:17.882Z,3.63
2018-12-09T06:35:45.418Z,2.73
2018-12-09T06:38:12.895Z,1.90
2018-12-09T06:40:40.348Z,4.07
2018-12-09T06:43:08.002Z,2.23
2018-12-09T06:45:35.561Z,1.70
2018-12-09T06:48:03.026Z,2.97
2018-12-09T06:50:30.476Z,1.37
2018-12-09T06:52:57.946Z,2.70
2018-12-09T06:55:25.400Z,2.80
2018-12-09T06:57:52.939Z,1.10
2018-12-09T07:00:21.350Z,3.00
2018-12-09T07:02:49.094Z,1.87
2018-12-09T07:05:16.698Z,3.20
2018-12-09T07:07:44.180Z,3.60
2018-12-09T07:10:11.765Z,2.00
2018-12-09T07:12:39.286Z,1.97
2018-12-09T07:15:06.983Z,4.00
2018-12-09T07:17:34.452Z,4.13
2018-12-09T07:20:01.922Z,3.20
2018-12-09T07:22:30.039Z,2.50
2018-12-09T07:24:57.608Z,2.63
2018-12-09T07:27:25.175Z,3.43
2018-12-09T07:29:52.658Z,2.57
2018-12-09T07:32:20.123Z,2.53
2018-12-09T07:34:47.817Z,1.67
2018-12-09T07:37:15.379Z,2.13
2018-12-09T07:39:42.865Z,2.70
2018-12-09T07:42:10.777Z,2.37
2018-12-09T07:44:38.229Z,3.00
2018-12-09T07:47:05.882Z,2.30
2018-12-09T07:49:33.351Z,2.13
2018-12-09T07:52:00.821Z,3.30
2018-12-09T07:54:28.354Z,3.03
2018-12-09T07:56:55.898Z,4.40
2018-12-09T07:59:23.360Z,2.67
2018-12-09T08:01:50.837Z,3.20
2018-12-09T08:04:18.340Z,1.80
2018-12-09T08:06:45.867Z,3.37
2018-12-09T08:09:14.351Z,2.53
2018-12-09T08:11:42.112Z,1.90
2018-12-09T08:14:09.673Z,0.83
2018-12-09T08:16:37.146Z,1.10
2018-12-09T08:19:04.737Z,1.50
2018-12-09T08:21:32.225Z,1.90
2018-12-09T08:23:59.910Z,0.90
2018-12-09T08:26:27.401Z,0.70
2018-12-09T08:28:54.908Z,0.87
2018-12-09T08:31:22.449Z,0.93
2018-12-09T08:33:49.920Z,0.60
2018-12-09T08:36:17.393Z,0.80
2018-12-09T08:38:44.870Z,1.03
2018-12-09T08:41:12.409Z,1.20
2018-12-09T08:43:39.862Z,1.13
2018-12-09T08:46:07.336Z,1.10
2018-12-09T08:48:34.836Z,1.67
2018-12-09T08:51:02.390Z,0.87
2018-12-09T08:53:29.874Z,1.83
2018-12-09T08:55:57.513Z,1.63
2018-12-09T08:58:25.208Z,0.90
2018-12-09T09:00:52.652Z,0.87
2018-12-09T09:03:20.109Z,0.90
2018-12-09T09:05:47.620Z,0.60
2018-12-09T09:08:15.110Z,0.60
2018-12-09T09:10:42.747Z,0.50
2018-12-09T09:13:10.326Z,0.50
2018-12-09T09:15:37.804Z,0.53
2018-12-09T09:18:06.061Z,0.70
2018-12-09T09:20:33.529Z,0.60
2018-12-09T09:23:01.303Z,0.60
2018-12-09T09:25:28.810Z,1.10
2018-12-09T09:27:56.256Z,0.57
2018-12-09T09:30:23.771Z,0.57
2018-12-09T09:32:52.147Z,0.60
2018-12-09T09:35:19.878Z,0.50
2018-12-09T09:37:47.579Z,0.50
2018-12-09T09:40:15.083Z,0.50
2018-12-09T09:42:42.717Z,0.60
2018-12-09T09:45:10.380Z,0.67
2018-12-09T09:47:37.967Z,0.60
2018-12-09T09:50:05.470Z,0.60
2018-12-09T09:52:32.938Z,1.17
2018-12-09T09:55:00.466Z,0.50
2018-12-09T09:57:27.998Z,1.10
2018-12-09T09:59:55.516Z,0.60
2018-12-09T10:02:23.027Z,1.20
2018-12-09T10:04:50.527Z,1.13
2018-12-09T10:07:17.973Z,0.90
2018-12-09T10:09:45.446Z,0.80
2018-12-09T10:12:13.019Z,0.90
2018-12-09T10:14:40.630Z,3.30
2018-12-09T10:17:08.362Z,1.83
2018-12-09T10:19:36.021Z,1.50
2018-12-09T10:22:03.583Z,1.70
2018-12-09T10:24:31.074Z,1.20
2018-12-09T10:26:58.533Z,1.37
2018-12-09T10:29:25.999Z,2.00
2018-12-09T10:31:53.430Z,1.63
2018-12-09T10:34:20.946Z,2.77
2018-12-09T10:36:48.385Z,1.73
2018-12-09T10:39:15.903Z,1.20
2018-12-09T10:41:43.386Z,1.07
2018-12-09T10:44:10.840Z,0.97
2018-12-09T10:46:38.320Z,1.23
2018-12-09T10:49:05.799Z,1.43
2018-12-09T10:51:33.269Z,1.03
2018-12-09T10:54:00.746Z,1.07
2018-12-09T10:56:28.190Z,1.27
2018-12-09T10:58:55.667Z,1.50
2018-12-09T11:01:28.989Z,2.13
2018-12-09T11:03:56.974Z,2.03
2018-12-09T11:06:24.803Z,1.87
2018-12-09T11:08:52.326Z,1.60
2018-12-09T11:11:19.846Z,1.40
2018-12-09T11:13:47.333Z,1.23
2018-12-09T11:16:14.855Z,1.30
2018-12-09T11:18:42.387Z,1.10
2018-12-09T11:21:09.847Z,0.83
2018-12-09T11:23:37.309Z,1.80
2018-12-09T11:26:04.751Z,0.93
2018-12-09T11:28:32.263Z,0.90
2018-12-09T11:30:59.703Z,0.83
2018-12-09T11:33:27.181Z,1.03
2018-12-09T11:35:54.618Z,1.57
2018-12-09T11:38:22.061Z,1.00
2018-12-09T11:40:49.569Z,0.60
2018-12-09T11:43:17.056Z,1.30
2018-12-09T11:45:44.510Z,1.30
2018-12-09T11:48:11.986Z,1.50
2018-12-09T11:50:39.440Z,0.80
2018-12-09T11:53:06.974Z,1.23
2018-12-09T11:55:34.899Z,1.13
2018-12-09T11:58:02.397Z,1.47
2018-12-09T12:00:29.877Z,1.60
2018-12-09T12:02:57.357Z,1.03
2018-12-09T12:05:24.848Z,0.97
2018-12-09T12:07:53.367Z,1.43
2018-12-09T12:10:20.997Z,1.83
2018-12-09T12:12:48.482Z,1.30
2018-12-09T12:15:16.016Z,1.00
2018-12-09T12:17:43.573Z,1.40
2018-12-09T12:20:11.225Z,1.17
2018-12-09T12:22:38.889Z,2.33
2018-12-09T12:25:06.533Z,1.60
2018-12-09T12:27:34.281Z,1.33
2018-12-09T12:30:01.787Z,1.33
2018-12-09T12:32:29.517Z,2.40
2018-12-09T12:34:57.230Z,1.10
2018-12-09T12:37:24.881Z,2.20
2018-12-09T12:39:52.660Z,1.20
2018-12-09T12:42:20.201Z,1.53
2018-12-09T12:44:47.836Z,1.87
2018-12-09T12:47:15.524Z,2.10
2018-12-09T12:49:43.266Z,1.43
2018-12-09T12:52:11.057Z,0.80
2018-12-09T12:54:38.522Z,1.63
2018-12-09T12:57:06.010Z,1.17
2018-12-09T12:59:33.460Z,1.20
2018-12-09T13:02:00.990Z,0.80
2018-12-09T13:04:28.446Z,1.67
2018-12-09T13:06:55.978Z,1.40
2018-12-09T13:09:23.458Z,0.83
2018-12-09T13:11:50.934Z,1.00
2018-12-09T13:14:18.373Z,1.73
2018-12-09T13:16:45.920Z,1.57
2018-12-09T13:19:13.493Z,1.30
2018-12-09T13:21:41.111Z,1.53
2018-12-09T13:24:08.632Z,1.53
2018-12-09T13:26:36.395Z,1.37
2018-12-09T13:29:05.464Z,1.87
2018-12-09T13:31:33.098Z,1.57
2018-12-09T13:34:00.815Z,1.53
2018-12-09T13:36:28.343Z,1.77
2018-12-09T13:38:55.787Z,1.50
2018-12-09T13:41:23.319Z,1.80
2018-12-09T13:43:50.858Z,1.47
2018-12-09T13:46:18.385Z,1.17
2018-12-09T13:48:45.862Z,1.50
2018-12-09T13:51:13.321Z,1.20
2018-12-09T13:53:40.782Z,1.63
2018-12-09T13:56:08.246Z,1.43
2018-12-09T13:58:35.694Z,1.33
2018-12-09T14:01:03.245Z,1.40
2018-12-09T14:03:30.689Z,2.10
2018-12-09T14:05:58.181Z,1.13
2018-12-09T14:08:25.791Z,1.67
2018-12-09T14:10:53.302Z,1.40
2018-12-09T14:13:21.072Z,1.80
2018-12-09T14:15:48.542Z,1.30
2018-12-09T14:18:21.927Z,1.03
2018-12-09T14:20:49.408Z,1.67
2018-12-09T14:23:16.860Z,1.67
2018-12-09T14:25:44.313Z,1.20
2018-12-09T14:28:11.792Z,1.43
2018-12-09T14:30:39.243Z,1.33
2018-12-09T14:33:06.821Z,1.13
2018-12-09T14:35:34.273Z,1.20
2018-12-09T14:38:01.734Z,1.10
2018-12-09T14:40:29.338Z,1.30
2018-12-09T14:42:56.836Z,1.23
2018-12-09T14:45:24.402Z,1.60
2018-12-09T14:47:51.852Z,1.20
2018-12-09T14:50:19.354Z,0.83
2018-12-09T14:52:46.813Z,1.43
2018-12-09T14:55:14.258Z,1.17
2018-12-09T14:57:41.727Z,1.50
2018-12-09T15:00:09.279Z,1.20
2018-12-09T15:05:14.903Z,2.07
2018-12-09T15:07:42.353Z,1.30
2018-12-09T15:10:09.934Z,1.50
2018-12-09T15:12:37.381Z,1.50
2018-12-09T15:15:05.105Z,1.40
2018-12-09T15:17:32.605Z,1.00
2018-12-09T15:20:00.130Z,1.67
2018-12-09T15:22:27.649Z,2.10
2018-12-09T15:24:55.130Z,1.43
2018-12-09T15:27:22.669Z,1.73
2018-12-09T15:29:50.130Z,1.90
2018-12-09T15:32:17.590Z,1.97
2018-12-09T15:34:45.063Z,1.97
2018-12-09T15:37:12.641Z,2.13
2018-12-09T15:39:40.090Z,2.40
2018-12-09T15:42:07.554Z,2.10
2018-12-09T15:44:35.038Z,2.83
2018-12-09T15:47:02.478Z,1.30
2018-12-09T15:49:29.958Z,2.03
2018-12-09T15:51:57.401Z,1.93
2018-12-09T15:54:25.128Z,1.73
2018-12-09T15:56:52.590Z,1.60
2018-12-09T15:59:20.899Z,1.30
2018-12-09T16:01:48.561Z,1.70
2018-12-09T16:04:16.039Z,0.93
2018-12-09T16:06:43.486Z,2.00
2018-12-09T16:09:10.926Z,1.80
2018-12-09T16:11:38.393Z,0.93
2018-12-09T16:16:39.607Z,1.80
2018-12-09T16:19:07.093Z,2.50
2018-12-09T16:21:34.553Z,2.37
2018-12-09T16:24:02.001Z,1.80
2018-12-09T16:26:29.554Z,1.53
2018-12-09T16:28:57.026Z,2.37
2018-12-09T16:31:24.509Z,2.80
2018-12-09T16:33:51.973Z,1.73
2018-12-09T16:36:19.502Z,1.93
2018-12-09T16:38:46.974Z,2.20
2018-12-09T16:41:14.423Z,1.43
2018-12-09T16:43:41.957Z,1.70
2018-12-09T16:46:09.402Z,2.20
2018-12-09T16:48:36.846Z,1.87
2018-12-09T16:51:04.313Z,2.00
2018-12-09T16:53:31.773Z,3.23
2018-12-09T16:55:59.248Z,1.63
2018-12-09T16:58:26.786Z,1.23
2018-12-09T17:00:54.273Z,1.23
2018-12-09T17:03:21.724Z,2.10
2018-12-09T17:05:49.173Z,1.33
2018-12-09T17:08:16.647Z,1.37
2018-12-09T17:10:44.141Z,1.60
2018-12-09T17:13:11.594Z,1.37
2018-12-09T17:15:39.106Z,2.20
2018-12-09T17:18:06.558Z,1.67
2018-12-09T17:20:34.026Z,2.37
2018-12-09T17:23:01.554Z,1.33
2018-12-09T17:25:29.042Z,2.53
2018-12-09T17:27:56.494Z,1.50
2018-12-09T17:30:23.935Z,1.17
2018-12-09T17:32:51.617Z,2.07
2018-12-09T17:35:19.084Z,1.70
2018-12-09T17:37:46.570Z,2.00
2018-12-09T17:40:14.083Z,1.77
2018-12-09T17:42:41.572Z,1.53
2018-12-09T17:45:09.189Z,2.20
2018-12-09T17:47:36.652Z,1.80
2018-12-09T17:50:05.696Z,2.50
2018-12-09T17:52:33.157Z,1.07
2018-12-09T17:55:00.757Z,1.93
2018-12-09T17:57:28.201Z,2.03
2018-12-09T17:59:55.643Z,2.60
2018-12-09T18:02:23.146Z,2.50
2018-12-09T18:04:50.585Z,2.10
2018-12-09T18:07:18.050Z,3.83
2018-12-09T18:09:45.494Z,2.40
2018-12-09T18:12:12.965Z,3.00
2018-12-09T18:14:40.449Z,3.03
2018-12-09T18:17:07.993Z,2.27
2018-12-09T18:19:35.443Z,2.30
2018-12-09T18:22:02.901Z,2.20
2018-12-09T18:24:30.457Z,1.70
2018-12-09T18:26:57.902Z,1.93
2018-12-09T18:29:25.460Z,1.77
2018-12-09T18:31:53.113Z,3.33
2018-12-09T18:34:21.514Z,1.90
2018-12-09T18:36:49.051Z,2.60
2018-12-09T18:39:16.518Z,4.13
2018-12-09T18:41:44.004Z,2.70
2018-12-09T18:44:11.458Z,3.40
2018-12-09T18:46:38.902Z,2.23
2018-12-09T18:49:06.370Z,1.93
2018-12-09T18:51:33.826Z,1.90
2018-12-09T18:54:01.640Z,3.13
2018-12-09T18:56:29.345Z,1.80
2018-12-09T18:58:57.068Z,2.70
2018-12-09T19:01:24.676Z,3.10
2018-12-09T19:03:52.434Z,3.20
2018-12-09T19:06:20.116Z,3.23
2018-12-09T19:08:47.775Z,3.20
2018-12-09T19:11:15.275Z,1.80
2018-12-09T19:13:42.747Z,1.00
2018-12-09T19:16:10.221Z,3.43
2018-12-09T19:18:37.885Z,2.00
2018-12-09T19:21:05.366Z,2.37
2018-12-09T19:23:32.829Z,2.80
2018-12-09T19:26:00.323Z,3.67
2018-12-09T19:28:27.868Z,3.30
2018-12-09T19:30:55.323Z,2.30
2018-12-09T19:33:22.766Z,2.13
2018-12-09T19:35:50.213Z,4.17
2018-12-09T19:38:17.678Z,5.13
2018-12-09T19:40:45.150Z,4.17
2018-12-09T19:43:13.347Z,6.17
2018-12-09T19:45:41.112Z,2.97
2018-12-09T19:48:08.559Z,1.57
2018-12-09T19:50:36.022Z,1.93
2018-12-09T19:53:03.629Z,3.77
2018-12-09T19:55:31.146Z,2.30
2018-12-09T19:57:58.671Z,2.03
2018-12-09T20:00:26.113Z,3.20
2018-12-09T20:02:53.600Z,2.17
2018-12-09T20:05:21.247Z,1.30
2018-12-09T20:07:48.756Z,2.50
2018-12-09T20:10:16.435Z,2.00
2018-12-09T20:12:44.103Z,3.57
2018-12-09T20:15:11.587Z,6.00
2018-12-09T20:17:39.117Z,3.97
2018-12-09T20:20:06.957Z,2.80
2018-12-09T20:22:34.473Z,2.00
2018-12-09T20:25:02.129Z,2.70
2018-12-09T20:27:29.818Z,1.67
2018-12-09T20:29:57.277Z,2.53
2018-12-09T20:32:24.912Z,1.90
2018-12-09T20:34:52.683Z,2.40
2018-12-09T20:37:20.332Z,1.43
2018-12-09T20:39:47.968Z,1.33
2018-12-09T20:42:15.457Z,1.10
2018-12-09T20:44:43.066Z,1.30
2018-12-09T20:47:10.818Z,1.80
2018-12-09T20:49:38.428Z,1.97
2018-12-09T20:52:06.055Z,1.20
2018-12-09T20:54:33.678Z,2.60
2018-12-09T20:57:02.832Z,5.03
2018-12-09T20:59:30.506Z,6.47
2018-12-09T21:01:58.045Z,8.13
2018-12-09T21:04:25.608Z,13.07
2018-12-09T21:06:53.283Z,5.23
2018-12-09T21:09:20.867Z,4.37
2018-12-09T21:11:48.475Z,4.00
2018-12-09T21:14:15.913Z,2.23
2018-12-09T21:16:43.454Z,2.17
2018-12-09T21:19:10.907Z,1.53
2018-12-09T21:21:38.377Z,2.43
2018-12-09T21:24:05.896Z,2.60
2018-12-09T21:26:33.371Z,2.43
2018-12-09T21:29:00.834Z,1.80
2018-12-09T21:31:28.302Z,2.30
2018-12-09T21:33:55.861Z,2.27
2018-12-09T21:36:23.433Z,2.93
2018-12-09T21:38:50.869Z,2.10
2018-12-09T21:41:18.362Z,1.93
2018-12-09T21:43:45.822Z,2.00
2018-12-09T21:46:13.285Z,2.40
2018-12-09T21:48:40.763Z,0.70
2018-12-09T21:51:08.254Z,2.73
2018-12-09T21:53:35.755Z,2.10
2018-12-09T21:56:03.256Z,3.37
2018-12-09T21:58:30.742Z,3.10
2018-12-09T22:00:58.185Z,1.37
2018-12-09T22:03:25.630Z,2.10
2018-12-09T22:05:53.106Z,2.47
2018-12-09T22:08:20.579Z,1.13
2018-12-09T22:10:48.021Z,2.07
2018-12-09T22:13:15.515Z,1.90
2018-12-09T22:15:42.984Z,2.53
2018-12-09T22:18:10.433Z,2.87
2018-12-09T22:20:39.842Z,0.93
2018-12-09T22:23:07.316Z,2.60
2018-12-09T22:25:34.833Z,1.23
2018-12-09T22:28:02.311Z,3.10
2018-12-09T22:30:29.785Z,3.33
2018-12-09T22:32:57.258Z,2.50
2018-12-09T22:35:24.715Z,1.57
2018-12-09T22:37:52.185Z,0.97
2018-12-09T22:40:19.678Z,1.77
2018-12-09T22:42:47.154Z,1.50
2018-12-09T22:45:14.654Z,2.03
2018-12-09T22:47:42.117Z,2.03
2018-12-09T22:50:09.618Z,2.03
2018-12-09T22:52:37.092Z,2.47
2018-12-09T22:55:05.400Z,0.80
2018-12-09T22:57:32.841Z,1.63
2018-12-09T23:00:00.309Z,2.10
2018-12-09T23:05:32.946Z,1.30
2018-12-09T23:08:00.509Z,2.00
2018-12-09T23:10:28.076Z,1.50
2018-12-09T23:12:55.649Z,2.43
2018-12-09T23:15:23.223Z,2.77
2018-12-09T23:17:50.679Z,1.50
2018-12-09T23:20:18.194Z,2.00
2018-12-09T23:22:45.675Z,2.57
2018-12-09T23:25:13.189Z,1.80
2018-12-09T23:27:40.666Z,3.77
2018-12-09T23:30:08.281Z,2.93
2018-12-09T23:32:35.738Z,2.60
2018-12-09T23:35:03.601Z,2.00
2018-12-09T23:37:31.069Z,2.27
2018-12-09T23:39:58.549Z,1.73
2018-12-09T23:42:26.003Z,0.87
2018-12-09T23:44:53.501Z,1.80
2018-12-09T23:47:21.002Z,2.07
2018-12-09T23:49:48.478Z,1.90
2018-12-09T23:52:15.933Z,1.93
2018-12-09T23:54:43.457Z,1.70
2018-12-09T23:57:10.921Z,1.67
2018-12-09T23:59:38.361Z,2.10
